Time;durP1;ratioP1;P1;durP2;ratioP2;P2;SDS_P1;SDS_P2;PMS_P1;PMS_P2;Temp;Humidity;BMP_temperature;BMP_pressure;BME280_temperature;BME280_humidity;BME280_pressure;Samples;Min_cycle;Max_cycle;Signal;HPM_P1;HPM_P2
2022/07/05 00:01:28;;;;;;;1.60;1.50;;;14.80;99.90;;;;;;5026514;28;20209;-63
2022/07/05 00:03:56;;;;;;;1.80;1.60;;;15.10;99.90;;;;;;5037824;28;20233;-63
2022/07/05 00:06:23;;;;;;;1.98;1.70;;;15.30;99.90;;;;;;5019153;28;20201;-64
2022/07/05 00:08:50;;;;;;;2.72;1.73;;;15.00;99.90;;;;;;5043361;28;20609;-63
2022/07/05 00:11:17;;;;;;;3.60;1.75;;;14.90;99.90;;;;;;5046627;28;20778;-63
2022/07/05 00:13:43;;;;;;;2.45;1.90;;;14.60;99.90;;;;;;5034790;28;20207;-62
2022/07/05 00:16:10;;;;;;;4.63;1.88;;;14.80;99.90;;;;;;5026070;28;20220;-62
2022/07/05 00:18:37;;;;;;;2.42;1.80;;;15.00;99.90;;;;;;5028087;28;20212;-63
2022/07/05 00:21:05;;;;;;;2.15;1.95;;;14.80;99.90;;;;;;5016810;28;20295;-64
2022/07/05 00:23:32;;;;;;;3.17;2.00;;;14.50;99.90;;;;;;5046489;28;20201;-63
2022/07/05 00:25:59;;;;;;;3.33;2.40;;;14.70;99.90;;;;;;5039235;28;20193;-63
2022/07/05 00:28:26;;;;;;;3.45;2.50;;;14.60;99.90;;;;;;5030602;28;20197;-63
2022/07/05 00:30:52;;;;;;;3.67;2.65;;;14.60;99.90;;;;;;5027314;28;20229;-63
2022/07/05 00:33:19;;;;;;;5.68;2.75;;;14.70;99.90;;;;;;5036731;28;20975;-63
2022/07/05 00:35:46;;;;;;;4.78;2.58;;;14.90;99.90;;;;;;5031505;28;20212;-63
2022/07/05 00:38:14;;;;;;;4.18;2.75;;;14.70;99.90;;;;;;5033435;28;20208;-62
2022/07/05 00:40:43;;;;;;;5.78;2.70;;;14.70;99.90;;;;;;5046532;28;20231;-62
2022/07/05 00:43:10;;;;;;;5.45;2.58;;;14.50;99.90;;;;;;5046270;28;20197;-63
2022/07/05 00:45:36;;;;;;;3.10;2.70;;;14.70;99.90;;;;;;5036362;28;20204;-62
2022/07/05 00:48:03;;;;;;;4.35;3.10;;;14.50;99.90;;;;;;5012362;28;20232;-63
2022/07/05 00:50:31;;;;;;;7.38;3.13;;;14.40;99.90;;;;;;5053671;28;20228;-64
2022/07/05 00:52:58;;;;;;;5.32;3.22;;;14.40;99.90;;;;;;5023033;28;20208;-63
2022/07/05 00:55:26;;;;;;;3.20;2.90;;;14.10;99.90;;;;;;5054215;28;20203;-63
2022/07/05 00:57:54;;;;;;;4.22;2.70;;;14.30;99.90;;;;;;5037557;28;20212;-63
2022/07/05 01:00:21;;;;;;;5.20;2.88;;;14.40;99.90;;;;;;5034582;28;20229;-63
2022/07/05 01:02:48;;;;;;;4.28;2.90;;;14.30;99.90;;;;;;5028063;28;20590;-63
2022/07/05 01:05:15;;;;;;;4.90;2.80;;;14.20;99.90;;;;;;5038815;28;20358;-63
2022/07/05 01:07:42;;;;;;;6.80;3.10;;;14.20;99.90;;;;;;5041547;28;20942;-63
2022/07/05 01:10:10;;;;;;;5.00;3.15;;;14.00;99.90;;;;;;5034207;28;20240;-63
2022/07/05 01:12:40;;;;;;;3.17;2.47;;;14.10;99.90;;;;;;5039253;28;20208;-64
2022/07/05 01:15:08;;;;;;;3.60;2.70;;;14.20;99.90;;;;;;5038680;28;20216;-63
2022/07/05 01:17:36;;;;;;;4.95;3.03;;;14.20;99.90;;;;;;5039340;28;20668;-63
2022/07/05 01:20:05;;;;;;;3.35;2.70;;;14.20;99.90;;;;;;5014223;28;20209;-63
2022/07/05 01:22:52;;;;;;;6.28;2.88;;;14.10;99.90;;;;;;5036070;28;20259;-63
2022/07/05 01:25:21;;;;;;;7.22;2.78;;;14.20;99.90;;;;;;5032367;28;20313;-63
2022/07/05 01:27:48;;;;;;;4.43;2.80;;;14.10;99.90;;;;;;5037555;28;20207;-63
2022/07/05 01:30:15;;;;;;;4.63;2.90;;;14.10;99.90;;;;;;5032065;28;20780;-63
2022/07/05 01:32:42;;;;;;;3.67;2.55;;;12.40;99.90;;;;;;5035546;28;20743;-63
2022/07/05 01:35:10;;;;;;;4.97;2.67;;;14.00;99.90;;;;;;5013056;28;20699;-62
2022/07/05 01:37:39;;;;;;;2.83;2.40;;;13.90;99.90;;;;;;5034654;28;20208;-62
2022/07/05 01:40:07;;;;;;;4.10;2.60;;;13.80;99.90;;;;;;5031423;28;20742;-62
2022/07/05 01:42:34;;;;;;;3.75;2.55;;;13.90;99.90;;;;;;5045958;28;20211;-62
2022/07/05 01:45:01;;;;;;;6.88;2.80;;;13.90;99.90;;;;;;5043056;28;20188;-62
2022/07/05 01:47:28;;;;;;;6.50;2.88;;;13.80;99.90;;;;;;5044026;28;20195;-62
2022/07/05 01:49:58;;;;;;;4.97;3.30;;;14.00;99.90;;;;;;5016027;28;20229;-62
2022/07/05 01:52:26;;;;;;;5.15;3.20;;;13.70;99.90;;;;;;5022682;28;20197;-61
2022/07/05 01:54:54;;;;;;;7.45;2.95;;;13.70;99.90;;;;;;5030183;28;20572;-62
2022/07/05 01:57:21;;;;;;;3.90;2.92;;;13.80;99.90;;;;;;5032597;28;20291;-62
2022/07/05 01:59:48;;;;;;;5.32;3.20;;;13.50;99.90;;;;;;5047904;28;20207;-62
2022/07/05 02:02:15;;;;;;;3.60;3.25;;;13.80;99.90;;;;;;5050216;28;20207;-62
2022/07/05 02:04:42;;;;;;;3.60;3.28;;;13.90;99.90;;;;;;5033106;28;20205;-63
2022/07/05 02:07:10;;;;;;;2.95;2.70;;;13.80;99.90;;;;;;5030269;28;20221;-62
2022/07/05 02:09:37;;;;;;;5.32;3.72;;;14.90;99.90;;;;;;5032965;28;20204;-62
2022/07/05 02:12:07;;;;;;;3.40;3.10;;;14.10;99.90;;;;;;5022620;28;20233;-62
2022/07/05 02:14:34;;;;;;;5.82;3.20;;;14.20;99.90;;;;;;5047791;28;20937;-62
2022/07/05 02:17:01;;;;;;;5.15;3.90;;;14.10;99.90;;;;;;5049224;28;20207;-62
2022/07/05 02:19:28;;;;;;;5.15;3.33;;;14.10;99.90;;;;;;5034557;28;20209;-62
2022/07/05 02:21:55;;;;;;;4.40;3.35;;;15.50;99.90;;;;;;5024598;28;20217;-62
2022/07/05 02:24:22;;;;;;;5.95;3.60;;;14.10;99.90;;;;;;5036272;28;20200;-62
2022/07/05 02:26:49;;;;;;;6.22;3.40;;;14.10;99.90;;;;;;5030907;28;21032;-61
2022/07/05 02:29:18;;;;;;;5.47;3.42;;;;;;;;;;5045680;28;20199;-62
2022/07/05 02:31:45;;;;;;;5.80;3.63;;;;;;;;;;5049153;28;20229;-62
2022/07/05 02:34:12;;;;;;;5.65;3.08;;;14.10;99.90;;;;;;5035651;28;20668;-62
2022/07/05 02:36:39;;;;;;;7.20;3.50;;;14.10;99.90;;;;;;5046815;28;20238;-62
2022/07/05 02:39:06;;;;;;;5.68;3.08;;;14.20;99.90;;;;;;5024464;28;20205;-62
2022/07/05 02:41:32;;;;;;;7.82;3.45;;;14.10;99.90;;;;;;5040384;28;20201;-62
2022/07/05 02:43:59;;;;;;;6.75;3.22;;;14.10;99.90;;;;;;5036206;28;20208;-62
2022/07/05 02:46:27;;;;;;;3.65;2.70;;;14.10;99.90;;;;;;5048579;28;20204;-62
2022/07/05 02:48:54;;;;;;;4.72;3.10;;;14.20;99.90;;;;;;5052400;28;20197;-61
2022/07/05 02:51:21;;;;;;;5.45;2.72;;;14.20;99.90;;;;;;5032548;28;20236;-62
2022/07/05 02:53:47;;;;;;;3.83;3.05;;;16.20;99.90;;;;;;5023229;28;20236;-62
2022/07/05 02:56:14;;;;;;;7.65;3.10;;;14.20;99.90;;;;;;5034146;28;20201;-62
2022/07/05 02:58:41;;;;;;;4.80;2.97;;;14.10;99.90;;;;;;5029327;28;20216;-62
2022/07/05 03:01:08;;;;;;;4.43;3.10;;;14.00;99.90;;;;;;5033808;28;20204;-62
2022/07/05 03:03:36;;;;;;;4.15;3.05;;;14.20;99.90;;;;;;5049264;28;20212;-62
2022/07/05 03:06:03;;;;;;;4.57;2.90;;;13.90;99.90;;;;;;5038356;28;20224;-62
2022/07/05 03:08:30;;;;;;;3.22;2.85;;;14.00;99.90;;;;;;5058587;28;20197;-62
2022/07/05 03:10:56;;;;;;;8.02;3.33;;;13.80;99.90;;;;;;5023396;28;20228;-62
2022/07/05 03:13:23;;;;;;;4.45;2.80;;;13.70;99.90;;;;;;5027809;28;20197;-62
2022/07/05 03:15:50;;;;;;;6.72;3.13;;;13.60;99.90;;;;;;5039069;28;20201;-62
2022/07/05 03:18:17;;;;;;;5.10;3.10;;;13.60;99.90;;;;;;5040996;28;20208;-62
2022/07/05 03:20:45;;;;;;;4.18;2.60;;;13.60;99.90;;;;;;5053747;28;20204;-62
2022/07/05 03:23:12;;;;;;;8.48;3.05;;;14.20;99.90;;;;;;5041349;28;20201;-62
2022/07/05 03:25:39;;;;;;;7.22;3.17;;;13.80;99.90;;;;;;5013302;28;20998;-62
2022/07/05 03:28:05;;;;;;;5.00;2.92;;;13.70;99.90;;;;;;5038773;28;20204;-61
2022/07/05 03:30:32;;;;;;;2.92;2.63;;;13.80;99.90;;;;;;5037186;28;20207;-62
2022/07/05 03:32:59;;;;;;;4.00;3.30;;;14.00;99.90;;;;;;5042973;28;20301;-62
2022/07/05 03:35:27;;;;;;;5.65;3.58;;;13.80;99.90;;;;;;5035834;28;20197;-62
2022/07/05 03:37:55;;;;;;;7.68;3.10;;;13.60;99.90;;;;;;5036318;28;20208;-62
2022/07/05 03:40:22;;;;;;;5.25;3.05;;;13.80;99.90;;;;;;5027638;28;20213;-62
2022/07/05 03:42:49;;;;;;;5.50;3.15;;;13.80;99.90;;;;;;5037242;28;20571;-62
2022/07/05 03:45:16;;;;;;;4.78;3.20;;;13.70;99.90;;;;;;5021549;28;20270;-62
2022/07/05 03:47:43;;;;;;;3.67;3.25;;;13.80;99.90;;;;;;5035951;28;20881;-62
2022/07/05 03:50:10;;;;;;;3.60;2.97;;;13.80;99.90;;;;;;5039365;28;20228;-62
2022/07/05 03:52:37;;;;;;;4.25;3.10;;;13.80;99.90;;;;;;5036858;28;20248;-62
2022/07/05 03:55:05;;;;;;;4.97;3.25;;;13.80;99.90;;;;;;5043366;28;20201;-63
2022/07/05 03:57:32;;;;;;;7.82;3.20;;;13.50;99.90;;;;;;5019307;28;20208;-62
2022/07/05 03:59:59;;;;;;;10.02;3.78;;;13.00;99.90;;;;;;5017905;28;20211;-63
2022/07/05 04:02:26;;;;;;;4.30;3.47;;;13.50;99.90;;;;;;5038658;28;20677;-62
2022/07/05 04:04:53;;;;;;;5.97;3.63;;;13.20;99.90;;;;;;5031190;28;20853;-62
2022/07/05 04:07:19;;;;;;;8.07;3.38;;;13.30;99.90;;;;;;5042373;28;20221;-62
2022/07/05 04:09:46;;;;;;;6.03;3.78;;;13.40;99.90;;;;;;5051014;28;20209;-62
2022/07/05 04:12:14;;;;;;;6.22;3.17;;;13.40;99.90;;;;;;5026999;28;20249;-62
2022/07/05 04:14:41;;;;;;;10.60;3.50;;;13.40;99.90;;;;;;5030709;28;20200;-62
2022/07/05 04:17:08;;;;;;;9.80;3.80;;;13.40;99.90;;;;;;5042970;28;20202;-62
2022/07/05 04:19:35;;;;;;;5.93;3.45;;;13.50;99.90;;;;;;5037363;28;20211;-62
2022/07/05 04:22:02;;;;;;;8.52;3.70;;;13.60;99.90;;;;;;5023496;28;20209;-62
2022/07/05 04:24:29;;;;;;;10.52;3.80;;;13.50;99.90;;;;;;5045941;28;23391;-63
2022/07/05 04:26:55;;;;;;;8.52;4.07;;;15.60;99.90;;;;;;5021453;28;20715;-63
2022/07/05 04:29:23;;;;;;;10.10;4.18;;;13.50;99.90;;;;;;5036581;28;20211;-63
2022/07/05 04:31:50;;;;;;;5.18;4.53;;;13.50;99.90;;;;;;5038043;28;20592;-63
2022/07/05 04:34:17;;;;;;;4.65;4.20;;;14.40;99.90;;;;;;5038643;28;20196;-62
2022/07/05 04:36:44;;;;;;;6.45;3.67;;;13.50;99.90;;;;;;5040396;28;20204;-62
2022/07/05 04:39:11;;;;;;;4.65;3.97;;;13.70;99.90;;;;;;5042671;28;20201;-61
2022/07/05 04:41:38;;;;;;;7.55;4.25;;;13.70;99.90;;;;;;5036737;28;20230;-63
2022/07/05 04:44:05;;;;;;;5.22;4.20;;;14.10;99.90;;;;;;5014420;28;23925;-63
2022/07/05 04:46:33;;;;;;;4.40;3.90;;;14.00;99.90;;;;;;5044308;28;20647;-62
2022/07/05 04:49:00;;;;;;;7.05;4.20;;;14.00;99.90;;;;;;5021772;28;20201;-61
2022/07/05 04:51:26;;;;;;;5.72;3.83;;;14.20;99.90;;;;;;5035414;28;20232;-62
2022/07/05 04:53:53;;;;;;;3.83;3.45;;;14.20;99.90;;;;;;5024780;28;20201;-63
2022/07/05 04:56:20;;;;;;;8.13;3.75;;;14.20;99.90;;;;;;5045002;28;20213;-62
2022/07/05 04:58:47;;;;;;;6.15;3.33;;;14.30;99.90;;;;;;5030815;28;20228;-62
2022/07/05 05:01:13;;;;;;;3.30;2.78;;;14.40;99.90;;;;;;5033600;28;20203;-63
2022/07/05 05:03:42;;;;;;;5.38;3.10;;;14.40;99.90;;;;;;5040244;28;20211;-63
2022/07/05 05:06:08;;;;;;;3.03;2.70;;;14.50;99.90;;;;;;5021055;28;20225;-62
2022/07/05 05:08:35;;;;;;;4.13;2.85;;;14.60;99.90;;;;;;5053211;28;20207;-62
2022/07/05 05:11:02;;;;;;;6.13;3.22;;;14.50;99.90;;;;;;5041187;28;20221;-63
2022/07/05 05:13:29;;;;;;;4.68;2.72;;;14.90;99.90;;;;;;5037581;28;20201;-63
2022/07/05 05:15:55;;;;;;;4.88;2.90;;;14.70;99.90;;;;;;5038196;28;20212;-62
2022/07/05 05:18:26;;;;;;;7.20;2.88;;;14.90;99.90;;;;;;5024614;28;20205;-63
2022/07/05 05:20:55;;;;;;;4.25;3.03;;;14.90;99.90;;;;;;5039748;28;20307;-63
2022/07/05 05:23:22;;;;;;;2.88;2.53;;;14.70;99.90;;;;;;5036708;28;20388;-62
2022/07/05 05:25:49;;;;;;;4.85;2.95;;;14.90;99.90;;;;;;5038390;28;20202;-62
2022/07/05 05:28:16;;;;;;;3.80;2.92;;;14.70;99.90;;;;;;5025942;28;20205;-64
2022/07/05 05:30:43;;;;;;;3.20;2.90;;;14.90;99.90;;;;;;5046782;28;20216;-63
2022/07/05 05:33:09;;;;;;;3.05;2.63;;;15.20;99.90;;;;;;5025529;28;20240;-63
2022/07/05 05:35:36;;;;;;;4.03;3.13;;;15.10;99.90;;;;;;5039070;28;20659;-63
2022/07/05 05:38:04;;;;;;;3.97;2.80;;;15.30;99.90;;;;;;5041693;28;20280;-63
2022/07/05 05:40:32;;;;;;;7.78;3.25;;;15.00;99.90;;;;;;5040928;28;20196;-63
2022/07/05 05:43:00;;;;;;;5.18;3.13;;;15.10;99.90;;;;;;5044133;28;20814;-63
2022/07/05 05:45:27;;;;;;;3.83;2.40;;;15.20;99.90;;;;;;5026227;28;20231;-63
2022/07/05 05:47:56;;;;;;;9.48;2.97;;;15.20;99.90;;;;;;5033516;28;20626;-63
2022/07/05 05:50:26;;;;;;;6.93;3.10;;;15.00;99.90;;;;;;5034720;28;20228;-63
2022/07/05 05:52:53;;;;;;;6.88;2.83;;;15.20;99.90;;;;;;5041459;28;20228;-63
2022/07/05 05:55:23;;;;;;;5.00;3.22;;;15.30;99.90;;;;;;5039753;28;20201;-63
2022/07/05 05:57:50;;;;;;;5.85;2.95;;;15.40;99.90;;;;;;5041990;28;20232;-63
2022/07/05 06:00:19;;;;;;;3.92;3.17;;;15.50;99.90;;;;;;5031495;28;20683;-62
2022/07/05 06:02:48;;;;;;;4.57;3.13;;;15.50;99.90;;;;;;5034072;28;20285;-63
2022/07/05 06:05:15;;;;;;;3.22;2.80;;;15.50;99.90;;;;;;5034114;28;20206;-63
2022/07/05 06:07:50;;;;;;;6.90;3.08;;;15.50;99.90;;;;;;5035968;28;20584;-63
2022/07/05 06:10:19;;;;;;;4.55;2.72;;;15.60;99.90;;;;;;5046566;28;20216;-62
2022/07/05 06:12:48;;;;;;;3.75;2.95;;;15.70;99.90;;;;;;5039053;28;20266;-63
2022/07/05 06:15:15;;;;;;;5.22;3.17;;;15.80;99.90;;;;;;5040371;28;20217;-63
2022/07/05 06:17:42;;;;;;;5.93;2.97;;;15.80;99.90;;;;;;5028663;28;20201;-63
2022/07/05 06:20:12;;;;;;;6.10;2.42;;;16.00;99.90;;;;;;5026220;28;20196;-63
2022/07/05 06:22:40;;;;;;;2.47;2.25;;;16.00;99.90;;;;;;5036175;28;20781;-63
2022/07/05 06:25:08;;;;;;;6.50;2.65;;;15.90;99.90;;;;;;5044527;28;20224;-63
2022/07/05 06:27:39;;;;;;;2.47;1.73;;;16.30;99.90;;;;;;5030304;28;20235;-63
2022/07/05 06:30:09;;;;;;;3.60;1.90;;;16.10;99.90;;;;;;5051679;28;20724;-63
2022/07/05 06:32:37;;;;;;;2.78;1.80;;;16.20;99.90;;;;;;5021142;28;20216;-63
2022/07/05 06:35:04;;;;;;;4.13;1.58;;;16.00;99.90;;;;;;5030756;28;20220;-63
2022/07/05 06:37:41;;;;;;;3.25;1.83;;;13.60;99.90;;;;;;5023702;28;20220;-63
2022/07/05 06:40:09;;;;;;;2.83;1.75;;;16.40;99.90;;;;;;5045705;28;20197;-63
2022/07/05 06:42:36;;;;;;;3.33;1.40;;;16.40;99.90;;;;;;5033955;28;20298;-64
2022/07/05 06:45:03;;;;;;;2.30;1.50;;;16.60;99.90;;;;;;5051178;28;20201;-63
2022/07/05 06:47:31;;;;;;;3.38;1.60;;;16.50;99.90;;;;;;5021132;28;20850;-63
2022/07/05 06:49:59;;;;;;;2.97;1.30;;;16.60;99.90;;;;;;5027640;28;20734;-63
2022/07/05 06:52:26;;;;;;;1.45;1.27;;;16.60;99.90;;;;;;5034268;28;20791;-63
2022/07/05 06:54:53;;;;;;;1.38;1.23;;;16.70;99.90;;;;;;5043621;28;20226;-63
2022/07/05 06:57:21;;;;;;;1.88;1.38;;;16.70;99.90;;;;;;5034778;28;20228;-62
2022/07/05 06:59:48;;;;;;;5.40;1.40;;;16.80;99.90;;;;;;5040594;28;20761;-63
2022/07/05 07:02:14;;;;;;;2.85;1.88;;;17.10;99.90;;;;;;5027735;28;20530;-63
2022/07/05 07:04:43;;;;;;;1.45;1.08;;;16.90;99.90;;;;;;5046012;28;20208;-63
2022/07/05 07:09:17;;;;;;;1.25;1.10;;;17.00;99.90;;;;;;5032011;28;20209;-63
2022/07/05 07:09:57;;;;;;;4.40;1.25;;;16.90;99.90;;;;;;5037449;28;20290;-63
2022/07/05 07:12:23;;;;;;;1.58;1.02;;;17.00;99.90;;;;;;5033282;28;20225;-63
2022/07/05 07:14:50;;;;;;;3.25;1.35;;;17.00;99.90;;;;;;5047131;28;20530;-63
2022/07/05 07:17:17;;;;;;;2.15;1.25;;;17.10;99.90;;;;;;5026844;28;20232;-60
2022/07/05 07:19:45;;;;;;;2.75;1.30;;;17.10;99.90;;;;;;5042538;28;20224;-62
2022/07/05 07:22:12;;;;;;;2.25;1.00;;;17.10;99.90;;;;;;5028909;28;20197;-61
2022/07/05 07:24:39;;;;;;;2.05;1.00;;;17.00;99.90;;;;;;5021831;28;20899;-62
2022/07/05 07:27:07;;;;;;;3.55;0.95;;;17.20;99.90;;;;;;5048103;28;20217;-62
2022/07/05 07:29:36;;;;;;;2.53;0.88;;;17.30;99.90;;;;;;5031840;28;20614;-62
2022/07/05 07:32:03;;;;;;;5.45;1.10;;;17.40;99.90;;;;;;5049081;28;20217;-62
2022/07/05 07:34:30;;;;;;;4.68;1.02;;;17.40;99.90;;;;;;5028078;28;20689;-62
2022/07/05 07:36:59;;;;;;;2.72;1.10;;;17.50;99.90;;;;;;5031663;28;20219;-62
2022/07/05 07:39:27;;;;;;;2.80;1.00;;;17.50;99.90;;;;;;5037270;28;20201;-62
2022/07/05 07:41:54;;;;;;;5.68;1.65;;;17.50;99.90;;;;;;5048419;28;20202;-62
2022/07/05 07:44:21;;;;;;;1.98;1.38;;;19.00;99.90;;;;;;5035229;28;20201;-62
2022/07/05 07:46:48;;;;;;;2.33;0.88;;;17.40;99.90;;;;;;5044560;28;20197;-62
2022/07/05 07:49:15;;;;;;;2.55;1.10;;;17.40;99.90;;;;;;5026370;28;20225;-62
2022/07/05 07:51:42;;;;;;;0.90;0.90;;;14.20;99.90;;;;;;5031594;28;20857;-62
2022/07/05 07:54:10;;;;;;;0.70;0.70;;;17.40;99.90;;;;;;5058503;28;20198;-61
2022/07/05 07:56:37;;;;;;;1.70;0.90;;;17.50;99.90;;;;;;5039632;28;20230;-62
2022/07/05 07:59:04;;;;;;;1.10;1.00;;;17.60;99.90;;;;;;5030959;28;20197;-62
2022/07/05 08:01:31;;;;;;;2.47;1.10;;;19.30;99.90;;;;;;5047724;28;20216;-62
2022/07/05 08:03:58;;;;;;;0.88;0.75;;;18.00;99.90;;;;;;5054599;28;20575;-62
2022/07/05 08:06:24;;;;;;;0.90;0.85;;;17.60;99.90;;;;;;5036993;28;20201;-62
2022/07/05 08:08:51;;;;;;;2.58;0.82;;;17.90;99.90;;;;;;5040857;28;20215;-62
2022/07/05 08:11:19;;;;;;;0.65;0.63;;;17.80;99.90;;;;;;5045087;28;20295;-62
2022/07/05 08:13:47;;;;;;;3.35;1.10;;;18.00;99.90;;;;;;5039886;28;20885;-62
2022/07/05 08:16:14;;;;;;;4.25;0.75;;;18.00;99.90;;;;;;5058496;28;20208;-62
2022/07/05 08:21:35;;;;;;;5.03;1.00;;;18.10;99.90;;;;;;5031248;28;20215;-62
2022/07/05 08:24:04;;;;;;;3.80;1.40;;;18.20;99.90;;;;;;5042446;28;20321;-62
2022/07/05 08:26:32;;;;;;;1.45;1.05;;;18.20;99.90;;;;;;5024401;28;20200;-62
2022/07/05 08:29:01;;;;;;;2.22;0.95;;;18.30;99.90;;;;;;5037879;28;20208;-62
2022/07/05 08:31:29;;;;;;;1.00;0.85;;;18.30;99.90;;;;;;5033541;28;20228;-63
2022/07/05 08:33:56;;;;;;;1.75;0.70;;;18.40;99.90;;;;;;5042553;28;20224;-62
2022/07/05 08:36:24;;;;;;;1.60;0.80;;;18.30;99.90;;;;;;5014587;28;20208;-61
2022/07/05 08:38:51;;;;;;;1.88;0.88;;;18.30;99.90;;;;;;5037602;28;20708;-62
2022/07/05 08:41:20;;;;;;;2.03;0.90;;;18.20;99.90;;;;;;5046044;28;20197;-62
2022/07/05 08:43:49;;;;;;;1.23;0.73;;;18.20;99.90;;;;;;5041702;28;20743;-62
2022/07/05 08:46:17;;;;;;;2.78;0.70;;;18.10;99.90;;;;;;5042047;28;20201;-63
2022/07/05 08:48:47;;;;;;;2.08;0.70;;;18.10;99.90;;;;;;5020041;28;20211;-62
2022/07/05 08:51:16;;;;;;;2.70;0.88;;;17.20;99.90;;;;;;5047509;28;20236;-62
2022/07/05 08:53:44;;;;;;;1.33;0.80;;;18.20;99.90;;;;;;5021700;28;21060;-62
2022/07/05 08:56:14;;;;;;;0.70;0.70;;;18.20;99.90;;;;;;5034191;28;20671;-62
2022/07/05 08:58:41;;;;;;;3.78;0.70;;;18.30;99.90;;;;;;5018392;28;20613;-62
2022/07/05 09:01:11;;;;;;;1.00;0.77;;;18.40;99.90;;;;;;5031558;28;20201;-62
2022/07/05 09:03:40;;;;;;;1.67;0.80;;;18.60;99.90;;;;;;5020455;28;20224;-62
2022/07/05 09:06:09;;;;;;;0.95;0.75;;;18.50;99.90;;;;;;5047929;28;20228;-62
2022/07/05 09:08:39;;;;;;;5.63;0.70;;;18.40;99.90;;;;;;5026509;28;20688;-63
2022/07/05 09:11:07;;;;;;;1.73;0.75;;;;;;;;;;5023877;28;20513;-63
2022/07/05 09:13:34;;;;;;;1.45;0.73;;;;;;;;;;5030924;28;20287;-63
2022/07/05 09:16:02;;;;;;;1.08;0.70;;;;;;;;;;5037460;28;20229;-61
2022/07/05 09:18:43;;;;;;;1.63;0.88;;;18.50;99.90;;;;;;5013097;28;20227;-63
2022/07/05 09:21:18;;;;;;;1.77;0.80;;;18.40;99.90;;;;;;5039822;28;20224;-62
2022/07/05 09:23:46;;;;;;;0.63;0.63;;;18.80;99.90;;;;;;5025182;28;24585;-63
2022/07/05 09:26:12;;;;;;;3.70;0.93;;;18.70;99.90;;;;;;5025931;28;20607;-63
2022/07/05 09:28:56;;;;;;;1.10;0.80;;;18.90;99.90;;;;;;5020292;28;20211;-63
2022/07/05 09:31:30;;;;;;;0.65;0.60;;;18.70;99.90;;;;;;5029930;28;20196;-63
2022/07/05 09:34:09;;;;;;;2.92;1.23;;;18.80;99.90;;;;;;5024030;28;20229;-63
2022/07/05 09:36:54;;;;;;;3.47;1.00;;;18.70;99.90;;;;;;5050782;28;20291;-61
2022/07/05 09:39:37;;;;;;;2.88;0.73;;;18.70;99.90;;;;;;5027673;28;20201;-61
2022/07/05 09:42:17;;;;;;;2.38;0.90;;;18.90;99.90;;;;;;5049274;28;20217;-62
2022/07/05 09:44:45;;;;;;;3.25;1.25;;;19.10;99.90;;;;;;5031909;28;20297;-63
2022/07/05 09:47:13;;;;;;;2.05;0.93;;;19.00;99.90;;;;;;5039186;28;20226;-62
2022/07/05 09:49:44;;;;;;;1.92;0.68;;;18.90;99.90;;;;;;5020284;28;20726;-62
2022/07/05 09:52:12;;;;;;;1.27;0.80;;;18.90;99.90;;;;;;5037768;28;20668;-62
2022/07/05 09:54:40;;;;;;;1.08;0.90;;;19.00;99.90;;;;;;5019733;28;20240;-62
2022/07/05 09:57:07;;;;;;;1.02;0.90;;;19.20;99.90;;;;;;5035966;28;20239;-62
2022/07/05 09:59:34;;;;;;;2.03;1.23;;;19.20;99.90;;;;;;5031055;28;20211;-62
2022/07/05 10:02:00;;;;;;;2.20;0.98;;;19.40;99.90;;;;;;5020144;28;20228;-62
2022/07/05 10:04:27;;;;;;;2.70;0.85;;;19.10;99.90;;;;;;5024644;28;20990;-63
2022/07/05 10:06:55;;;;;;;4.90;0.95;;;19.10;99.90;;;;;;5034310;28;20227;-63
2022/07/05 10:09:22;;;;;;;2.72;1.17;;;19.30;99.90;;;;;;5035851;28;20284;-62
2022/07/05 10:11:51;;;;;;;4.28;1.00;;;19.10;99.90;;;;;;5017685;28;20212;-62
2022/07/05 10:14:21;;;;;;;3.30;1.10;;;19.20;99.90;;;;;;5031074;28;20217;-62
2022/07/05 10:16:57;;;;;;;1.00;0.80;;;18.80;99.90;;;;;;5027287;28;20311;-62
2022/07/05 10:19:29;;;;;;;2.47;0.73;;;18.80;99.90;;;;;;5023869;28;20746;-62
2022/07/05 10:21:58;;;;;;;1.92;0.95;;;18.70;99.90;;;;;;5033591;28;20196;-63
2022/07/05 10:24:26;;;;;;;5.22;0.90;;;18.80;99.90;;;;;;5046998;28;20208;-63
2022/07/05 10:26:54;;;;;;;1.98;0.90;;;19.00;99.90;;;;;;5019590;28;20213;-63
2022/07/05 10:29:22;;;;;;;2.22;1.20;;;19.10;99.90;;;;;;5040329;28;20196;-63
2022/07/05 10:31:49;;;;;;;6.05;1.05;;;19.50;99.90;;;;;;5025664;28;20211;-62
2022/07/05 10:34:16;;;;;;;1.80;0.73;;;19.40;99.90;;;;;;5034201;28;20224;-62
2022/07/05 10:36:43;;;;;;;1.45;0.90;;;19.50;99.90;;;;;;5034001;28;20235;-62
2022/07/05 10:39:12;;;;;;;4.88;0.73;;;19.50;99.90;;;;;;5029034;28;20216;-63
2022/07/05 10:41:40;;;;;;;1.35;0.60;;;20.30;99.90;;;;;;5026044;28;20220;-62
2022/07/05 10:44:07;;;;;;;5.65;1.45;;;19.80;99.90;;;;;;5049770;28;20288;-63
2022/07/05 10:46:35;;;;;;;1.85;0.82;;;19.80;99.90;;;;;;5030157;28;20216;-63
2022/07/05 10:49:12;;;;;;;1.40;0.90;;;19.90;99.90;;;;;;5032542;28;20211;-63
2022/07/05 10:51:40;;;;;;;2.97;0.90;;;20.00;99.90;;;;;;5020896;28;20290;-63
2022/07/05 10:54:07;;;;;;;2.53;1.30;;;20.00;99.90;;;;;;5034641;28;20266;-63
2022/07/05 10:56:36;;;;;;;1.38;0.85;;;20.10;99.90;;;;;;5046519;28;20220;-63
2022/07/05 10:59:11;;;;;;;1.45;0.88;;;20.10;99.90;;;;;;5026519;28;20217;-63
2022/07/05 11:01:42;;;;;;;1.52;0.70;;;20.10;99.90;;;;;;5035954;28;20208;-63
2022/07/05 11:04:32;;;;;;;1.67;0.90;;;20.20;99.90;;;;;;5032020;28;20679;-63
2022/07/05 11:06:59;;;;;;;2.72;0.75;;;20.00;99.90;;;;;;5033537;28;20643;-63
2022/07/05 11:09:26;;;;;;;3.25;1.02;;;19.90;99.90;;;;;;5032651;28;20197;-63
2022/07/05 11:12:18;;;;;;;2.28;0.70;;;19.80;99.90;;;;;;5018938;28;20679;-63
2022/07/05 11:14:47;;;;;;;1.15;0.82;;;19.80;99.90;;;;;;5020671;28;20232;-64
2022/07/05 11:17:25;;;;;;;1.63;0.80;;;19.70;99.90;;;;;;5028245;28;20213;-62
2022/07/05 11:20:11;;;;;;;1.60;0.90;;;19.70;99.90;;;;;;5035972;28;20213;-62
2022/07/05 11:22:41;;;;;;;2.30;0.80;;;19.70;99.90;;;;;;5029256;28;20233;-62
2022/07/05 11:25:10;;;;;;;0.73;0.63;;;19.60;99.90;;;;;;5016192;28;20225;-63
2022/07/05 11:28:06;;;;;;;1.60;0.57;;;19.70;99.90;;;;;;5035950;28;20209;-62
2022/07/05 11:30:49;;;;;;;2.30;1.00;;;19.50;99.90;;;;;;5018510;28;21034;-63
2022/07/05 11:33:30;;;;;;;2.90;0.85;;;19.40;99.90;;;;;;5027780;28;20225;-62
2022/07/05 11:35:57;;;;;;;0.73;0.73;;;19.40;99.90;;;;;;5037656;28;20839;-64
2022/07/05 11:38:24;;;;;;;2.10;0.75;;;19.40;99.90;;;;;;5038146;28;20774;-63
2022/07/05 11:40:51;;;;;;;1.58;0.80;;;19.50;99.90;;;;;;5029303;28;20209;-63
2022/07/05 11:43:28;;;;;;;0.88;0.73;;;19.50;99.90;;;;;;5036006;28;20215;-62
2022/07/05 11:45:59;;;;;;;1.45;1.00;;;19.50;99.90;;;;;;5029813;28;20236;-62
2022/07/05 11:48:28;;;;;;;1.15;0.70;;;19.60;99.90;;;;;;5036647;28;20205;-63
2022/07/05 11:50:54;;;;;;;0.70;0.70;;;19.70;99.90;;;;;;5043802;28;20225;-62
2022/07/05 11:53:28;;;;;;;4.82;0.88;;;19.80;99.90;;;;;;5038385;28;20225;-63
2022/07/05 11:55:57;;;;;;;1.65;0.80;;;19.90;99.90;;;;;;5032135;28;20703;-62
2022/07/05 11:58:33;;;;;;;2.83;0.75;;;20.10;99.90;;;;;;5016582;28;20221;-62
2022/07/05 12:01:01;;;;;;;1.50;0.77;;;20.20;99.90;;;;;;5004948;28;21028;-62
2022/07/05 12:03:28;;;;;;;3.63;1.20;;;20.20;99.90;;;;;;5020835;28;20220;-61
2022/07/05 12:05:55;;;;;;;4.07;1.10;;;20.20;99.90;;;;;;5040913;28;20213;-61
2022/07/05 12:08:22;;;;;;;5.57;1.10;;;20.10;99.90;;;;;;5038382;28;20205;-61
2022/07/05 12:13:46;;;;;;;3.05;1.20;;;19.60;99.90;;;;;;5038964;28;20239;-61
2022/07/05 12:16:13;;;;;;;2.47;1.10;;;19.70;99.90;;;;;;5014179;28;20666;-61
2022/07/05 12:18:54;;;;;;;1.85;1.23;;;19.90;99.90;;;;;;5020571;28;20205;-61
2022/07/05 12:21:22;;;;;;;0.85;0.80;;;20.10;99.90;;;;;;5038384;28;20224;-62
2022/07/05 12:23:49;;;;;;;1.60;0.80;;;19.90;99.90;;;;;;5008702;28;20213;-61
2022/07/05 12:26:17;;;;;;;1.50;1.08;;;20.10;99.90;;;;;;5027907;28;20205;-62
2022/07/05 12:28:47;;;;;;;6.38;1.02;;;19.90;99.90;;;;;;5042844;28;20212;-61
2022/07/05 12:31:18;;;;;;;1.77;1.00;;;19.90;99.90;;;;;;5040427;28;20228;-62
2022/07/05 12:33:45;;;;;;;1.63;0.82;;;19.80;99.90;;;;;;5004683;28;20231;-62
2022/07/05 12:36:13;;;;;;;1.58;0.85;;;20.50;99.90;;;;;;5019905;28;20211;-62
2022/07/05 12:38:40;;;;;;;2.28;0.90;;;20.40;99.90;;;;;;5012243;28;20278;-62
2022/07/05 12:41:07;;;;;;;6.18;1.13;;;20.60;99.90;;;;;;5031032;28;23325;-62
2022/07/05 12:43:34;;;;;;;3.63;1.27;;;20.60;99.90;;;;;;5035636;28;20219;-62
2022/07/05 12:46:04;;;;;;;2.50;1.00;;;20.80;99.90;;;;;;5032264;28;20343;-61
2022/07/05 12:48:32;;;;;;;1.58;0.85;;;20.50;99.90;;;;;;5026993;28;20232;-62
2022/07/05 12:50:59;;;;;;;3.38;1.25;;;20.40;99.90;;;;;;5020248;28;20301;-62
2022/07/05 12:58:57;;;;;;;1.88;1.30;;;20.30;99.90;;;;;;5038531;28;20274;-62
2022/07/05 13:01:27;;;;;;;2.63;0.95;;;20.40;99.90;;;;;;5027812;28;20216;-61
2022/07/05 13:03:59;;;;;;;4.63;1.58;;;20.90;99.90;;;;;;5008660;28;21041;-62
2022/07/05 13:06:40;;;;;;;3.88;1.10;;;20.60;99.90;;;;;;5048441;22;20220;-62